sensor_id;sensor_type;location;lat;lon;timestamp;P1;durP1;ratioP1;P2;durP2;ratioP2
5137;SDS011;53959;53.626;11.410;2023-02-15T00:01:48;53.77;;;23.93;;
5137;SDS011;53959;53.626;11.410;2023-02-15T00:04:14;48.37;;;23.37;;
5137;SDS011;53959;53.626;11.410;2023-02-15T00:06:41;51.40;;;24.23;;
5137;SDS011;53959;53.626;11.410;2023-02-15T00:09:08;49.87;;;24.63;;
5137;SDS011;53959;53.626;11.410;2023-02-15T00:11:34;53.63;;;24.17;;
5137;SDS011;53959;53.626;11.410;2023-02-15T00:16:44;71.57;;;24.27;;
5137;SDS011;53959;53.626;11.410;2023-02-15T00:19:11;54.47;;;24.47;;
5137;SDS011;53959;53.626;11.410;2023-02-15T00:21:38;50.13;;;23.10;;
5137;SDS011;53959;53.626;11.410;2023-02-15T00:24:04;47.90;;;24.60;;
5137;SDS011;53959;53.626;11.410;2023-02-15T00:26:31;53.20;;;24.00;;
5137;SDS011;53959;53.626;11.410;2023-02-15T00:28:57;49.50;;;25.90;;
5137;SDS011;53959;53.626;11.410;2023-02-15T00:31:26;51.40;;;23.80;;
5137;SDS011;53959;53.626;11.410;2023-02-15T00:33:56;51.10;;;25.40;;
5137;SDS011;53959;53.626;11.410;2023-02-15T00:36:26;49.57;;;24.50;;
5137;SDS011;53959;53.626;11.410;2023-02-15T00:38:51;52.70;;;24.00;;
5137;SDS011;53959;53.626;11.410;2023-02-15T00:41:17;58.40;;;25.10;;
5137;SDS011;53959;53.626;11.410;2023-02-15T00:43:42;51.37;;;25.10;;
5137;SDS011;53959;53.626;11.410;2023-02-15T00:46:08;51.77;;;24.27;;
5137;SDS011;53959;53.626;11.410;2023-02-15T00:48:33;48.70;;;24.27;;
5137;SDS011;53959;53.626;11.410;2023-02-15T00:50:59;51.73;;;24.57;;
5137;SDS011;53959;53.626;11.410;2023-02-15T00:53:25;52.20;;;25.07;;
5137;SDS011;53959;53.626;11.410;2023-02-15T00:55:52;53.97;;;23.77;;
5137;SDS011;53959;53.626;11.410;2023-02-15T00:58:17;52.77;;;24.70;;
5137;SDS011;53959;53.626;11.410;2023-02-15T01:00:45;50.70;;;24.60;;
5137;SDS011;53959;53.626;11.410;2023-02-15T01:03:12;48.97;;;24.57;;
5137;SDS011;53959;53.626;11.410;2023-02-15T01:05:39;48.60;;;24.60;;
5137;SDS011;53959;53.626;11.410;2023-02-15T01:08:05;50.53;;;25.00;;
5137;SDS011;53959;53.626;11.410;2023-02-15T01:10:31;58.23;;;26.10;;
5137;SDS011;53959;53.626;11.410;2023-02-15T01:12:57;55.23;;;25.87;;
5137;SDS011;53959;53.626;11.410;2023-02-15T01:15:22;50.13;;;24.93;;
5137;SDS011;53959;53.626;11.410;2023-02-15T01:17:48;42.67;;;23.40;;
5137;SDS011;53959;53.626;11.410;2023-02-15T01:20:18;53.23;;;23.93;;
5137;SDS011;53959;53.626;11.410;2023-02-15T01:22:44;47.47;;;25.20;;
5137;SDS011;53959;53.626;11.410;2023-02-15T01:25:10;52.60;;;24.80;;
5137;SDS011;53959;53.626;11.410;2023-02-15T01:27:37;55.43;;;25.23;;
5137;SDS011;53959;53.626;11.410;2023-02-15T01:30:02;55.97;;;26.33;;
5137;SDS011;53959;53.626;11.410;2023-02-15T01:32:29;53.03;;;25.07;;
5137;SDS011;53959;53.626;11.410;2023-02-15T01:34:55;55.67;;;26.70;;
5137;SDS011;53959;53.626;11.410;2023-02-15T01:37:20;49.30;;;24.20;;
5137;SDS011;53959;53.626;11.410;2023-02-15T01:39:46;62.13;;;25.23;;
5137;SDS011;53959;53.626;11.410;2023-02-15T01:42:11;56.43;;;26.47;;
5137;SDS011;53959;53.626;11.410;2023-02-15T01:44:47;50.13;;;24.73;;
5137;SDS011;53959;53.626;11.410;2023-02-15T01:50:00;53.70;;;25.50;;
5137;SDS011;53959;53.626;11.410;2023-02-15T01:52:31;56.33;;;25.70;;
5137;SDS011;53959;53.626;11.410;2023-02-15T01:55:00;62.10;;;27.80;;
5137;SDS011;53959;53.626;11.410;2023-02-15T01:57:25;54.50;;;26.03;;
5137;SDS011;53959;53.626;11.410;2023-02-15T01:59:53;64.63;;;26.37;;
5137;SDS011;53959;53.626;11.410;2023-02-15T02:02:23;62.90;;;25.60;;
5137;SDS011;53959;53.626;11.410;2023-02-15T02:04:53;54.13;;;25.53;;
5137;SDS011;53959;53.626;11.410;2023-02-15T02:07:27;56.67;;;27.17;;
5137;SDS011;53959;53.626;11.410;2023-02-15T02:09:54;56.00;;;26.00;;
5137;SDS011;53959;53.626;11.410;2023-02-15T02:12:22;60.70;;;26.30;;
5137;SDS011;53959;53.626;11.410;2023-02-15T02:14:49;62.97;;;27.53;;
5137;SDS011;53959;53.626;11.410;2023-02-15T02:23:04;59.43;;;26.70;;
5137;SDS011;53959;53.626;11.410;2023-02-15T02:34:33;70.40;;;29.33;;
5137;SDS011;53959;53.626;11.410;2023-02-15T02:37:20;57.10;;;27.43;;
5137;SDS011;53959;53.626;11.410;2023-02-15T02:47:58;71.80;;;30.97;;
5137;SDS011;53959;53.626;11.410;2023-02-15T02:50:27;68.83;;;30.40;;
5137;SDS011;53959;53.626;11.410;2023-02-15T02:52:55;78.77;;;31.87;;
5137;SDS011;53959;53.626;11.410;2023-02-15T02:58:02;64.83;;;29.10;;
5137;SDS011;53959;53.626;11.410;2023-02-15T03:00:43;70.17;;;28.80;;
5137;SDS011;53959;53.626;11.410;2023-02-15T03:03:16;68.77;;;32.13;;
5137;SDS011;53959;53.626;11.410;2023-02-15T03:05:48;68.03;;;30.87;;
5137;SDS011;53959;53.626;11.410;2023-02-15T03:08:18;67.67;;;30.23;;
5137;SDS011;53959;53.626;11.410;2023-02-15T03:10:48;79.93;;;30.73;;
5137;SDS011;53959;53.626;11.410;2023-02-15T03:13:19;74.63;;;30.73;;
5137;SDS011;53959;53.626;11.410;2023-02-15T03:15:46;79.53;;;30.30;;
5137;SDS011;53959;53.626;11.410;2023-02-15T03:18:35;76.47;;;31.20;;
5137;SDS011;53959;53.626;11.410;2023-02-15T03:21:05;70.87;;;31.93;;
5137;SDS011;53959;53.626;11.410;2023-02-15T03:23:34;70.53;;;31.13;;
5137;SDS011;53959;53.626;11.410;2023-02-15T03:26:05;78.50;;;32.80;;
5137;SDS011;53959;53.626;11.410;2023-02-15T03:28:43;72.37;;;31.60;;
5137;SDS011;53959;53.626;11.410;2023-02-15T03:31:13;75.30;;;31.93;;
5137;SDS011;53959;53.626;11.410;2023-02-15T03:33:49;77.70;;;34.07;;
5137;SDS011;53959;53.626;11.410;2023-02-15T03:39:05;75.77;;;32.03;;
5137;SDS011;53959;53.626;11.410;2023-02-15T03:41:38;84.33;;;33.10;;
5137;SDS011;53959;53.626;11.410;2023-02-15T03:44:19;80.93;;;32.63;;
5137;SDS011;53959;53.626;11.410;2023-02-15T03:46:55;81.40;;;32.80;;
5137;SDS011;53959;53.626;11.410;2023-02-15T03:49:38;71.90;;;31.90;;
5137;SDS011;53959;53.626;11.410;2023-02-15T03:52:09;78.47;;;31.87;;
5137;SDS011;53959;53.626;11.410;2023-02-15T03:54:37;70.13;;;31.80;;
5137;SDS011;53959;53.626;11.410;2023-02-15T03:57:11;65.47;;;29.00;;
5137;SDS011;53959;53.626;11.410;2023-02-15T04:05:54;84.43;;;35.57;;
5137;SDS011;53959;53.626;11.410;2023-02-15T04:08:19;85.20;;;33.50;;
5137;SDS011;53959;53.626;11.410;2023-02-15T04:10:45;79.07;;;31.40;;
5137;SDS011;53959;53.626;11.410;2023-02-15T04:13:29;67.40;;;31.07;;
5137;SDS011;53959;53.626;11.410;2023-02-15T04:15:56;85.13;;;33.20;;
5137;SDS011;53959;53.626;11.410;2023-02-15T04:18:32;81.83;;;34.70;;
5137;SDS011;53959;53.626;11.410;2023-02-15T04:21:22;73.67;;;30.47;;
5137;SDS011;53959;53.626;11.410;2023-02-15T04:24:08;69.83;;;30.87;;
5137;SDS011;53959;53.626;11.410;2023-02-15T04:26:52;75.80;;;31.70;;
5137;SDS011;53959;53.626;11.410;2023-02-15T04:29:18;73.13;;;32.17;;
5137;SDS011;53959;53.626;11.410;2023-02-15T04:31:44;77.87;;;32.97;;
5137;SDS011;53959;53.626;11.410;2023-02-15T04:34:09;76.60;;;31.73;;
5137;SDS011;53959;53.626;11.410;2023-02-15T04:36:36;79.50;;;32.13;;
5137;SDS011;53959;53.626;11.410;2023-02-15T04:39:02;71.27;;;29.87;;
5137;SDS011;53959;53.626;11.410;2023-02-15T04:41:27;79.07;;;32.90;;
5137;SDS011;53959;53.626;11.410;2023-02-15T04:43:52;77.20;;;32.30;;
5137;SDS011;53959;53.626;11.410;2023-02-15T04:46:18;83.73;;;34.57;;
5137;SDS011;53959;53.626;11.410;2023-02-15T04:48:43;74.67;;;32.83;;
5137;SDS011;53959;53.626;11.410;2023-02-15T04:51:09;72.70;;;31.77;;
5137;SDS011;53959;53.626;11.410;2023-02-15T04:53:34;76.80;;;32.37;;
5137;SDS011;53959;53.626;11.410;2023-02-15T04:56:00;81.67;;;32.93;;
5137;SDS011;53959;53.626;11.410;2023-02-15T04:58:25;79.03;;;31.73;;
5137;SDS011;53959;53.626;11.410;2023-02-15T05:00:51;64.43;;;30.00;;
5137;SDS011;53959;53.626;11.410;2023-02-15T05:03:20;77.47;;;30.00;;
5137;SDS011;53959;53.626;11.410;2023-02-15T05:05:45;77.40;;;31.57;;
5137;SDS011;53959;53.626;11.410;2023-02-15T05:08:11;70.37;;;31.47;;
5137;SDS011;53959;53.626;11.410;2023-02-15T05:10:36;79.17;;;33.80;;
5137;SDS011;53959;53.626;11.410;2023-02-15T05:13:01;66.67;;;31.20;;
5137;SDS011;53959;53.626;11.410;2023-02-15T05:15:27;78.80;;;32.63;;
5137;SDS011;53959;53.626;11.410;2023-02-15T05:17:52;70.70;;;32.40;;
5137;SDS011;53959;53.626;11.410;2023-02-15T05:20:17;76.27;;;33.27;;
5137;SDS011;53959;53.626;11.410;2023-02-15T05:22:43;69.13;;;32.00;;
5137;SDS011;53959;53.626;11.410;2023-02-15T05:25:09;74.20;;;32.20;;
5137;SDS011;53959;53.626;11.410;2023-02-15T05:27:53;73.80;;;31.80;;
5137;SDS011;53959;53.626;11.410;2023-02-15T05:30:38;67.60;;;29.30;;
5137;SDS011;53959;53.626;11.410;2023-02-15T05:33:05;74.40;;;31.27;;
5137;SDS011;53959;53.626;11.410;2023-02-15T05:35:32;77.57;;;32.20;;
5137;SDS011;53959;53.626;11.410;2023-02-15T05:37:58;61.60;;;30.03;;
5137;SDS011;53959;53.626;11.410;2023-02-15T05:40:23;71.40;;;29.37;;
5137;SDS011;53959;53.626;11.410;2023-02-15T05:42:48;78.40;;;30.57;;
5137;SDS011;53959;53.626;11.410;2023-02-15T05:45:14;73.87;;;30.80;;
5137;SDS011;53959;53.626;11.410;2023-02-15T05:47:40;77.93;;;31.17;;
5137;SDS011;53959;53.626;11.410;2023-02-15T05:50:06;80.30;;;30.10;;
5137;SDS011;53959;53.626;11.410;2023-02-15T05:52:32;73.00;;;31.37;;
5137;SDS011;53959;53.626;11.410;2023-02-15T05:54:57;78.90;;;31.10;;
5137;SDS011;53959;53.626;11.410;2023-02-15T05:57:25;68.17;;;32.17;;
5137;SDS011;53959;53.626;11.410;2023-02-15T05:59:50;73.50;;;33.03;;
5137;SDS011;53959;53.626;11.410;2023-02-15T06:02:16;74.90;;;31.70;;
5137;SDS011;53959;53.626;11.410;2023-02-15T06:04:41;75.57;;;32.87;;
5137;SDS011;53959;53.626;11.410;2023-02-15T06:07:06;78.07;;;32.97;;
5137;SDS011;53959;53.626;11.410;2023-02-15T06:09:32;68.97;;;31.67;;
5137;SDS011;53959;53.626;11.410;2023-02-15T06:11:57;78.23;;;29.90;;
5137;SDS011;53959;53.626;11.410;2023-02-15T06:14:22;83.53;;;32.20;;
5137;SDS011;53959;53.626;11.410;2023-02-15T06:16:48;74.63;;;30.30;;
5137;SDS011;53959;53.626;11.410;2023-02-15T06:19:13;75.43;;;31.40;;
5137;SDS011;53959;53.626;11.410;2023-02-15T06:21:39;73.43;;;29.87;;
5137;SDS011;53959;53.626;11.410;2023-02-15T06:24:04;66.00;;;27.67;;
5137;SDS011;53959;53.626;11.410;2023-02-15T06:26:29;68.83;;;29.77;;
5137;SDS011;53959;53.626;11.410;2023-02-15T06:28:55;73.60;;;30.43;;
5137;SDS011;53959;53.626;11.410;2023-02-15T06:31:20;78.63;;;30.10;;
5137;SDS011;53959;53.626;11.410;2023-02-15T06:33:45;73.80;;;30.50;;
5137;SDS011;53959;53.626;11.410;2023-02-15T06:36:11;79.37;;;33.10;;
5137;SDS011;53959;53.626;11.410;2023-02-15T06:38:37;75.23;;;32.00;;
5137;SDS011;53959;53.626;11.410;2023-02-15T06:41:03;69.27;;;30.80;;
5137;SDS011;53959;53.626;11.410;2023-02-15T06:43:28;78.40;;;32.83;;
5137;SDS011;53959;53.626;11.410;2023-02-15T06:45:53;75.57;;;29.70;;
5137;SDS011;53959;53.626;11.410;2023-02-15T06:48:19;77.10;;;31.97;;
5137;SDS011;53959;53.626;11.410;2023-02-15T06:50:44;77.43;;;32.57;;
5137;SDS011;53959;53.626;11.410;2023-02-15T06:53:10;77.67;;;32.90;;
5137;SDS011;53959;53.626;11.410;2023-02-15T06:55:35;81.47;;;29.67;;
5137;SDS011;53959;53.626;11.410;2023-02-15T06:58:00;77.63;;;31.47;;
5137;SDS011;53959;53.626;11.410;2023-02-15T07:00:26;81.53;;;33.67;;
5137;SDS011;53959;53.626;11.410;2023-02-15T07:02:54;86.00;;;33.10;;
5137;SDS011;53959;53.626;11.410;2023-02-15T07:05:21;76.83;;;31.27;;
5137;SDS011;53959;53.626;11.410;2023-02-15T07:07:47;70.80;;;31.77;;
5137;SDS011;53959;53.626;11.410;2023-02-15T07:10:13;81.40;;;32.73;;
5137;SDS011;53959;53.626;11.410;2023-02-15T07:12:38;71.27;;;31.27;;
5137;SDS011;53959;53.626;11.410;2023-02-15T07:15:07;81.27;;;32.80;;
5137;SDS011;53959;53.626;11.410;2023-02-15T07:17:36;68.40;;;28.23;;
5137;SDS011;53959;53.626;11.410;2023-02-15T07:20:03;73.37;;;32.57;;
5137;SDS011;53959;53.626;11.410;2023-02-15T07:22:30;82.23;;;33.87;;
5137;SDS011;53959;53.626;11.410;2023-02-15T07:24:55;67.63;;;28.40;;
5137;SDS011;53959;53.626;11.410;2023-02-15T07:27:21;84.70;;;32.10;;
5137;SDS011;53959;53.626;11.410;2023-02-15T07:29:47;84.20;;;35.60;;
5137;SDS011;53959;53.626;11.410;2023-02-15T07:32:13;78.80;;;32.40;;
5137;SDS011;53959;53.626;11.410;2023-02-15T07:34:38;88.50;;;32.07;;
5137;SDS011;53959;53.626;11.410;2023-02-15T07:37:05;97.40;;;31.47;;
5137;SDS011;53959;53.626;11.410;2023-02-15T07:39:30;83.57;;;30.53;;
5137;SDS011;53959;53.626;11.410;2023-02-15T07:41:56;67.27;;;28.43;;
5137;SDS011;53959;53.626;11.410;2023-02-15T07:44:24;105.43;;;32.30;;
5137;SDS011;53959;53.626;11.410;2023-02-15T07:46:50;148.70;;;31.57;;
5137;SDS011;53959;53.626;11.410;2023-02-15T07:49:15;118.50;;;29.97;;
5137;SDS011;53959;53.626;11.410;2023-02-15T07:51:40;113.03;;;31.90;;
5137;SDS011;53959;53.626;11.410;2023-02-15T07:54:06;103.63;;;33.50;;
5137;SDS011;53959;53.626;11.410;2023-02-15T07:56:31;131.83;;;31.90;;
5137;SDS011;53959;53.626;11.410;2023-02-15T07:58:57;83.60;;;30.10;;
5137;SDS011;53959;53.626;11.410;2023-02-15T08:01:26;113.20;;;31.20;;
5137;SDS011;53959;53.626;11.410;2023-02-15T08:03:56;91.10;;;31.10;;
5137;SDS011;53959;53.626;11.410;2023-02-15T08:06:23;89.47;;;32.63;;
5137;SDS011;53959;53.626;11.410;2023-02-15T08:08:50;137.43;;;33.40;;
5137;SDS011;53959;53.626;11.410;2023-02-15T08:11:20;103.07;;;31.43;;
5137;SDS011;53959;53.626;11.410;2023-02-15T08:14:09;89.67;;;29.30;;
5137;SDS011;53959;53.626;11.410;2023-02-15T08:16:40;87.87;;;32.17;;
5137;SDS011;53959;53.626;11.410;2023-02-15T08:19:08;82.93;;;31.03;;
5137;SDS011;53959;53.626;11.410;2023-02-15T08:21:40;97.13;;;33.10;;
5137;SDS011;53959;53.626;11.410;2023-02-15T08:24:08;86.13;;;32.13;;
5137;SDS011;53959;53.626;11.410;2023-02-15T08:26:35;103.10;;;35.23;;
5137;SDS011;53959;53.626;11.410;2023-02-15T08:29:01;97.60;;;33.77;;
5137;SDS011;53959;53.626;11.410;2023-02-15T08:31:28;84.60;;;34.20;;
5137;SDS011;53959;53.626;11.410;2023-02-15T08:33:54;92.90;;;34.47;;
5137;SDS011;53959;53.626;11.410;2023-02-15T08:36:22;82.23;;;33.23;;
5137;SDS011;53959;53.626;11.410;2023-02-15T08:38:49;89.47;;;34.20;;
5137;SDS011;53959;53.626;11.410;2023-02-15T08:43:43;117.10;;;43.60;;
5137;SDS011;53959;53.626;11.410;2023-02-15T08:46:12;162.20;;;54.63;;
5137;SDS011;53959;53.626;11.410;2023-02-15T08:48:38;128.80;;;46.23;;
5137;SDS011;53959;53.626;11.410;2023-02-15T08:51:05;101.67;;;36.40;;
5137;SDS011;53959;53.626;11.410;2023-02-15T08:53:35;101.27;;;35.50;;
5137;SDS011;53959;53.626;11.410;2023-02-15T08:56:02;97.53;;;32.20;;
5137;SDS011;53959;53.626;11.410;2023-02-15T08:58:28;87.83;;;32.40;;
5137;SDS011;53959;53.626;11.410;2023-02-15T09:00:54;107.87;;;32.53;;
5137;SDS011;53959;53.626;11.410;2023-02-15T09:03:19;138.33;;;33.77;;
5137;SDS011;53959;53.626;11.410;2023-02-15T09:05:44;86.83;;;31.00;;
5137;SDS011;53959;53.626;11.410;2023-02-15T09:08:10;92.10;;;32.53;;
5137;SDS011;53959;53.626;11.410;2023-02-15T09:10:35;106.20;;;34.47;;
5137;SDS011;53959;53.626;11.410;2023-02-15T09:13:00;113.93;;;33.37;;
5137;SDS011;53959;53.626;11.410;2023-02-15T09:15:26;92.33;;;32.67;;
5137;SDS011;53959;53.626;11.410;2023-02-15T09:17:52;108.00;;;34.90;;
5137;SDS011;53959;53.626;11.410;2023-02-15T09:20:18;108.67;;;32.67;;
5137;SDS011;53959;53.626;11.410;2023-02-15T09:22:43;84.40;;;32.50;;
5137;SDS011;53959;53.626;11.410;2023-02-15T09:25:09;83.63;;;32.43;;
5137;SDS011;53959;53.626;11.410;2023-02-15T09:27:34;89.40;;;32.70;;
5137;SDS011;53959;53.626;11.410;2023-02-15T09:30:01;104.43;;;33.40;;
5137;SDS011;53959;53.626;11.410;2023-02-15T09:32:27;122.97;;;33.67;;
5137;SDS011;53959;53.626;11.410;2023-02-15T09:34:53;85.30;;;32.10;;
5137;SDS011;53959;53.626;11.410;2023-02-15T09:37:18;90.33;;;33.73;;
5137;SDS011;53959;53.626;11.410;2023-02-15T09:39:43;80.07;;;31.73;;
5137;SDS011;53959;53.626;11.410;2023-02-15T09:58:52;64.40;;;26.03;;
5137;SDS011;53959;53.626;11.410;2023-02-15T10:04:39;63.27;;;25.50;;
5137;SDS011;53959;53.626;11.410;2023-02-15T10:07:18;78.63;;;30.30;;
5137;SDS011;53959;53.626;11.410;2023-02-15T10:15:47;66.27;;;28.80;;
5137;SDS011;53959;53.626;11.410;2023-02-15T10:23:50;70.73;;;29.63;;
5137;SDS011;53959;53.626;11.410;2023-02-15T10:26:41;69.80;;;28.73;;
5137;SDS011;53959;53.626;11.410;2023-02-15T10:29:10;65.57;;;28.37;;
5137;SDS011;53959;53.626;11.410;2023-02-15T10:31:55;72.77;;;28.70;;
5137;SDS011;53959;53.626;11.410;2023-02-15T10:34:45;76.00;;;30.33;;
5137;SDS011;53959;53.626;11.410;2023-02-15T10:43:13;76.07;;;29.40;;
5137;SDS011;53959;53.626;11.410;2023-02-15T10:54:22;72.23;;;29.57;;
5137;SDS011;53959;53.626;11.410;2023-02-15T10:57:03;73.77;;;28.20;;
5137;SDS011;53959;53.626;11.410;2023-02-15T10:59:44;82.27;;;32.20;;
5137;SDS011;53959;53.626;11.410;2023-02-15T11:05:41;64.13;;;28.23;;
5137;SDS011;53959;53.626;11.410;2023-02-15T11:08:15;73.20;;;27.57;;
5137;SDS011;53959;53.626;11.410;2023-02-15T11:10:46;62.13;;;25.67;;
5137;SDS011;53959;53.626;11.410;2023-02-15T11:13:17;70.33;;;26.83;;
5137;SDS011;53959;53.626;11.410;2023-02-15T11:15:51;70.73;;;29.83;;
5137;SDS011;53959;53.626;11.410;2023-02-15T11:18:30;69.53;;;27.60;;
5137;SDS011;53959;53.626;11.410;2023-02-15T11:23:45;71.13;;;31.30;;
5137;SDS011;53959;53.626;11.410;2023-02-15T11:26:17;78.80;;;29.53;;
5137;SDS011;53959;53.626;11.410;2023-02-15T11:28:52;74.43;;;30.37;;
5137;SDS011;53959;53.626;11.410;2023-02-15T11:31:22;67.47;;;29.83;;
5137;SDS011;53959;53.626;11.410;2023-02-15T11:33:51;75.87;;;30.00;;
5137;SDS011;53959;53.626;11.410;2023-02-15T11:36:39;78.47;;;32.40;;
5137;SDS011;53959;53.626;11.410;2023-02-15T11:39:10;63.80;;;28.87;;
5137;SDS011;53959;53.626;11.410;2023-02-15T11:41:40;61.60;;;26.97;;
5137;SDS011;53959;53.626;11.410;2023-02-15T11:44:14;77.97;;;29.33;;
5137;SDS011;53959;53.626;11.410;2023-02-15T11:46:44;71.93;;;30.77;;
5137;SDS011;53959;53.626;11.410;2023-02-15T11:49:42;66.03;;;28.93;;
5137;SDS011;53959;53.626;11.410;2023-02-15T11:52:03;72.13;;;29.70;;
5137;SDS011;53959;53.626;11.410;2023-02-15T11:54:33;88.83;;;29.70;;
5137;SDS011;53959;53.626;11.410;2023-02-15T11:57:44;71.40;;;30.17;;
5137;SDS011;53959;53.626;11.410;2023-02-15T12:00:14;71.57;;;30.30;;
5137;SDS011;53959;53.626;11.410;2023-02-15T12:03:07;71.07;;;31.07;;
5137;SDS011;53959;53.626;11.410;2023-02-15T12:05:57;72.03;;;28.87;;
5137;SDS011;53959;53.626;11.410;2023-02-15T12:08:30;76.43;;;33.40;;
5137;SDS011;53959;53.626;11.410;2023-02-15T12:11:08;70.97;;;30.83;;
5137;SDS011;53959;53.626;11.410;2023-02-15T12:13:53;65.60;;;27.77;;
5137;SDS011;53959;53.626;11.410;2023-02-15T12:16:20;66.53;;;30.33;;
5137;SDS011;53959;53.626;11.410;2023-02-15T12:18:45;68.33;;;29.33;;
5137;SDS011;53959;53.626;11.410;2023-02-15T12:21:29;69.33;;;27.77;;
5137;SDS011;53959;53.626;11.410;2023-02-15T12:24:30;68.77;;;29.20;;
5137;SDS011;53959;53.626;11.410;2023-02-15T12:27:14;69.07;;;28.10;;
5137;SDS011;53959;53.626;11.410;2023-02-15T12:29:52;69.70;;;30.20;;
5137;SDS011;53959;53.626;11.410;2023-02-15T12:32:31;70.33;;;29.70;;
5137;SDS011;53959;53.626;11.410;2023-02-15T12:38:02;67.53;;;26.83;;
5137;SDS011;53959;53.626;11.410;2023-02-15T12:40:45;65.60;;;28.23;;
5137;SDS011;53959;53.626;11.410;2023-02-15T12:43:27;66.33;;;27.80;;
5137;SDS011;53959;53.626;11.410;2023-02-15T12:48:44;73.30;;;29.27;;
5137;SDS011;53959;53.626;11.410;2023-02-15T12:51:13;73.73;;;29.30;;
5137;SDS011;53959;53.626;11.410;2023-02-15T12:53:40;69.77;;;30.07;;
5137;SDS011;53959;53.626;11.410;2023-02-15T12:56:09;63.97;;;29.33;;
5137;SDS011;53959;53.626;11.410;2023-02-15T12:58:36;68.70;;;31.30;;
5137;SDS011;53959;53.626;11.410;2023-02-15T13:03:35;68.30;;;30.13;;
5137;SDS011;53959;53.626;11.410;2023-02-15T13:06:03;78.30;;;31.63;;
5137;SDS011;53959;53.626;11.410;2023-02-15T13:08:34;77.97;;;31.77;;
5137;SDS011;53959;53.626;11.410;2023-02-15T13:11:08;69.50;;;28.77;;
5137;SDS011;53959;53.626;11.410;2023-02-15T13:13:47;72.47;;;31.10;;
5137;SDS011;53959;53.626;11.410;2023-02-15T13:16:19;70.00;;;30.80;;
5137;SDS011;53959;53.626;11.410;2023-02-15T13:19:12;66.73;;;32.20;;
5137;SDS011;53959;53.626;11.410;2023-02-15T13:21:43;71.03;;;30.23;;
5137;SDS011;53959;53.626;11.410;2023-02-15T13:26:52;73.00;;;31.50;;
5137;SDS011;53959;53.626;11.410;2023-02-15T13:29:31;74.17;;;30.60;;
5137;SDS011;53959;53.626;11.410;2023-02-15T13:32:02;62.60;;;29.47;;
5137;SDS011;53959;53.626;11.410;2023-02-15T13:34:37;60.50;;;28.57;;
5137;SDS011;53959;53.626;11.410;2023-02-15T13:39:45;60.07;;;28.03;;
5137;SDS011;53959;53.626;11.410;2023-02-15T13:45:36;62.13;;;28.63;;
5137;SDS011;53959;53.626;11.410;2023-02-15T13:48:13;58.87;;;28.50;;
5137;SDS011;53959;53.626;11.410;2023-02-15T13:50:52;61.03;;;27.37;;
5137;SDS011;53959;53.626;11.410;2023-02-15T13:53:54;66.47;;;29.07;;
5137;SDS011;53959;53.626;11.410;2023-02-15T13:56:38;62.67;;;27.93;;
5137;SDS011;53959;53.626;11.410;2023-02-15T14:02:20;58.10;;;26.87;;
5137;SDS011;53959;53.626;11.410;2023-02-15T14:05:09;66.93;;;30.07;;
5137;SDS011;53959;53.626;11.410;2023-02-15T14:10:51;71.17;;;30.27;;
5137;SDS011;53959;53.626;11.410;2023-02-15T14:22:18;63.90;;;29.97;;
5137;SDS011;53959;53.626;11.410;2023-02-15T14:27:56;58.60;;;28.47;;
5137;SDS011;53959;53.626;11.410;2023-02-15T14:30:26;65.73;;;29.80;;
5137;SDS011;53959;53.626;11.410;2023-02-15T14:32:55;66.03;;;30.50;;
5137;SDS011;53959;53.626;11.410;2023-02-15T14:35:29;67.43;;;30.10;;
5137;SDS011;53959;53.626;11.410;2023-02-15T14:38:04;60.37;;;27.73;;
5137;SDS011;53959;53.626;11.410;2023-02-15T14:48:55;71.63;;;31.23;;
5137;SDS011;53959;53.626;11.410;2023-02-15T14:56:46;63.40;;;29.13;;
5137;SDS011;53959;53.626;11.410;2023-02-15T14:59:45;59.97;;;28.30;;
5137;SDS011;53959;53.626;11.410;2023-02-15T15:02:27;65.80;;;29.83;;
5137;SDS011;53959;53.626;11.410;2023-02-15T15:07:50;65.87;;;29.30;;
5137;SDS011;53959;53.626;11.410;2023-02-15T15:12:59;70.53;;;32.50;;
5137;SDS011;53959;53.626;11.410;2023-02-15T15:16:04;66.83;;;30.17;;
5137;SDS011;53959;53.626;11.410;2023-02-15T15:18:54;73.60;;;29.40;;
5137;SDS011;53959;53.626;11.410;2023-02-15T15:24:34;66.60;;;28.57;;
5137;SDS011;53959;53.626;11.410;2023-02-15T15:32:45;76.03;;;33.27;;
5137;SDS011;53959;53.626;11.410;2023-02-15T15:44:54;73.40;;;30.67;;
5137;SDS011;53959;53.626;11.410;2023-02-15T15:50:42;79.23;;;32.80;;
5137;SDS011;53959;53.626;11.410;2023-02-15T15:53:15;65.90;;;30.40;;
5137;SDS011;53959;53.626;11.410;2023-02-15T15:55:45;69.20;;;32.17;;
5137;SDS011;53959;53.626;11.410;2023-02-15T15:58:14;65.83;;;30.70;;
5137;SDS011;53959;53.626;11.410;2023-02-15T16:00:56;76.70;;;32.50;;
5137;SDS011;53959;53.626;11.410;2023-02-15T16:03:26;87.80;;;31.50;;
5137;SDS011;53959;53.626;11.410;2023-02-15T16:05:53;98.30;;;31.77;;
5137;SDS011;53959;53.626;11.410;2023-02-15T16:08:30;72.70;;;31.03;;
5137;SDS011;53959;53.626;11.410;2023-02-15T16:11:01;95.60;;;32.30;;
5137;SDS011;53959;53.626;11.410;2023-02-15T16:13:39;75.97;;;31.67;;
5137;SDS011;53959;53.626;11.410;2023-02-15T16:16:08;81.23;;;32.93;;
5137;SDS011;53959;53.626;11.410;2023-02-15T16:18:37;82.33;;;33.10;;
5137;SDS011;53959;53.626;11.410;2023-02-15T16:21:13;77.97;;;32.90;;
5137;SDS011;53959;53.626;11.410;2023-02-15T16:23:56;73.87;;;32.87;;
5137;SDS011;53959;53.626;11.410;2023-02-15T16:26:46;76.83;;;30.97;;
5137;SDS011;53959;53.626;11.410;2023-02-15T16:29:27;108.27;;;35.30;;
5137;SDS011;53959;53.626;11.410;2023-02-15T16:32:36;89.43;;;38.40;;
5137;SDS011;53959;53.626;11.410;2023-02-15T16:34:50;78.10;;;33.30;;
5137;SDS011;53959;53.626;11.410;2023-02-15T16:37:16;81.53;;;34.30;;
5137;SDS011;53959;53.626;11.410;2023-02-15T16:39:43;81.17;;;36.50;;
5137;SDS011;53959;53.626;11.410;2023-02-15T16:42:11;82.73;;;34.50;;
5137;SDS011;53959;53.626;11.410;2023-02-15T16:44:38;94.17;;;36.60;;
5137;SDS011;53959;53.626;11.410;2023-02-15T16:47:05;86.97;;;34.93;;
5137;SDS011;53959;53.626;11.410;2023-02-15T16:49:39;79.00;;;33.67;;
5137;SDS011;53959;53.626;11.410;2023-02-15T16:52:11;66.80;;;31.57;;
5137;SDS011;53959;53.626;11.410;2023-02-15T16:54:41;100.10;;;32.43;;
5137;SDS011;53959;53.626;11.410;2023-02-15T16:57:14;142.83;;;34.53;;
5137;SDS011;53959;53.626;11.410;2023-02-15T16:59:45;87.07;;;33.00;;
5137;SDS011;53959;53.626;11.410;2023-02-15T17:02:17;91.57;;;32.80;;
5137;SDS011;53959;53.626;11.410;2023-02-15T17:04:45;84.77;;;34.97;;
5137;SDS011;53959;53.626;11.410;2023-02-15T17:07:27;83.80;;;36.33;;
5137;SDS011;53959;53.626;11.410;2023-02-15T17:09:53;95.03;;;35.70;;
5137;SDS011;53959;53.626;11.410;2023-02-15T17:12:43;113.10;;;37.97;;
5137;SDS011;53959;53.626;11.410;2023-02-15T17:18:05;125.57;;;36.67;;
5137;SDS011;53959;53.626;11.410;2023-02-15T17:20:37;83.77;;;34.17;;
5137;SDS011;53959;53.626;11.410;2023-02-15T17:23:03;173.00;;;37.17;;
5137;SDS011;53959;53.626;11.410;2023-02-15T17:25:39;84.80;;;35.20;;
5137;SDS011;53959;53.626;11.410;2023-02-15T17:28:15;141.73;;;38.07;;
5137;SDS011;53959;53.626;11.410;2023-02-15T17:30:43;139.37;;;36.77;;
5137;SDS011;53959;53.626;11.410;2023-02-15T17:41:22;115.13;;;37.37;;
5137;SDS011;53959;53.626;11.410;2023-02-15T17:44:09;91.57;;;35.00;;